Time;durP1;ratioP1;P1;durP2;ratioP2;P2;SDS_P1;SDS_P2;PMS_P1;PMS_P2;Temp;Humidity;BMP_temperature;BMP_pressure;BME280_temperature;BME280_humidity;BME280_pressure;Samples;Min_cycle;Max_cycle;Signal;HPM_P1;HPM_P2
2022/03/16 00:00:24;;;;;;;36.25;21.92;;;9.80;99.90;;;;;;5009880;28;20388;-53
2022/03/16 00:02:50;;;;;;;39.77;23.47;;;9.50;99.90;;;;;;5008695;28;20416;-53
2022/03/16 00:05:16;;;;;;;37.88;22.15;;;9.70;99.90;;;;;;5008726;28;20412;-53
2022/03/16 00:07:42;;;;;;;36.40;21.85;;;9.70;99.90;;;;;;5009195;28;20914;-53
2022/03/16 00:10:09;;;;;;;37.47;22.63;;;9.60;99.90;;;;;;5009157;28;20881;-53
2022/03/16 00:12:36;;;;;;;40.92;22.08;;;9.60;99.90;;;;;;5009178;28;20385;-53
2022/03/16 00:15:02;;;;;;;38.97;22.40;;;9.50;99.90;;;;;;5009680;28;20381;-53
2022/03/16 00:17:28;;;;;;;38.50;22.13;;;9.50;99.90;;;;;;5009515;28;20451;-53
2022/03/16 00:19:53;;;;;;;36.65;21.83;;;9.40;99.90;;;;;;5008182;28;20416;-53
2022/03/16 00:22:19;;;;;;;38.30;23.43;;;9.50;99.90;;;;;;5009546;28;20376;-53
2022/03/16 00:24:45;;;;;;;41.10;22.42;;;9.40;99.90;;;;;;5008421;28;20413;-53
2022/03/16 00:27:10;;;;;;;39.03;22.60;;;9.40;99.90;;;;;;5008863;28;20428;-53
2022/03/16 00:29:36;;;;;;;42.92;23.85;;;9.50;99.90;;;;;;5009154;28;20377;-53
2022/03/16 00:32:02;;;;;;;37.80;22.97;;;9.60;99.90;;;;;;5008465;28;20382;-53
2022/03/16 00:34:27;;;;;;;44.25;23.73;;;9.70;99.90;;;;;;5010051;28;20409;-53
2022/03/16 00:36:53;;;;;;;41.63;24.60;;;9.60;99.90;;;;;;5012468;28;20416;-53
2022/03/16 00:39:19;;;;;;;46.13;25.47;;;9.60;99.90;;;;;;5013336;28;20387;-53
2022/03/16 00:41:44;;;;;;;42.08;23.30;;;9.60;99.90;;;;;;5012269;28;20389;-53
2022/03/16 00:44:10;;;;;;;44.13;23.77;;;9.50;99.90;;;;;;5012355;28;20397;-55
2022/03/16 00:46:36;;;;;;;43.60;24.37;;;9.60;99.90;;;;;;5012174;28;20415;-54
2022/03/16 00:49:03;;;;;;;45.13;24.60;;;9.50;99.90;;;;;;5012126;28;20389;-54
2022/03/16 00:51:29;;;;;;;44.33;23.43;;;9.60;99.90;;;;;;5012757;28;20421;-54
2022/03/16 00:53:55;;;;;;;39.30;22.77;;;9.50;99.90;;;;;;5011490;28;20915;-54
2022/03/16 00:56:21;;;;;;;48.72;24.55;;;9.60;99.90;;;;;;5012354;28;20377;-54
2022/03/16 00:58:47;;;;;;;46.78;24.75;;;9.60;99.90;;;;;;5011926;28;20523;-54
2022/03/16 01:01:13;;;;;;;46.53;25.37;;;9.60;99.90;;;;;;5012274;28;20391;-54
2022/03/16 01:03:41;;;;;;;46.83;23.95;;;9.60;99.90;;;;;;4994802;28;20753;-54
2022/03/16 01:06:12;;;;;;;49.72;26.38;;;9.50;99.90;;;;;;5011833;28;20491;-54
2022/03/16 01:08:39;;;;;;;47.40;25.10;;;9.60;99.90;;;;;;5011998;28;20401;-54
2022/03/16 01:11:05;;;;;;;46.22;24.55;;;9.50;99.90;;;;;;5011434;28;20388;-54
2022/03/16 01:13:31;;;;;;;45.88;23.13;;;9.70;99.90;;;;;;5012213;28;20762;-54
2022/03/16 01:15:56;;;;;;;47.63;24.80;;;9.60;99.90;;;;;;5010838;28;20440;-54
2022/03/16 01:18:22;;;;;;;49.55;26.02;;;9.50;99.90;;;;;;5012125;28;20373;-54
2022/03/16 01:20:48;;;;;;;46.07;24.60;;;9.40;99.90;;;;;;5011000;28;20475;-54
2022/03/16 01:23:13;;;;;;;46.35;24.35;;;9.40;99.90;;;;;;5011550;28;20472;-54
2022/03/16 01:25:39;;;;;;;50.00;25.93;;;9.50;99.90;;;;;;5011805;28;20772;-54
2022/03/16 01:28:05;;;;;;;52.90;26.38;;;9.60;99.90;;;;;;5011146;28;21055;-54
2022/03/16 01:30:30;;;;;;;51.33;26.30;;;9.50;99.90;;;;;;5011956;28;20858;-54
2022/03/16 01:32:56;;;;;;;50.63;27.15;;;9.50;99.90;;;;;;5011349;28;20381;-54
2022/03/16 01:35:22;;;;;;;57.60;28.30;;;9.50;99.90;;;;;;5011813;28;20392;-54
2022/03/16 01:37:47;;;;;;;51.17;26.80;;;9.50;99.90;;;;;;5010906;28;20483;-54
2022/03/16 01:40:13;;;;;;;49.10;26.03;;;9.40;99.90;;;;;;5011404;28;20787;-54
2022/03/16 01:42:45;;;;;;;54.30;27.33;;;9.40;99.90;;;;;;5011816;28;20398;-55
2022/03/16 01:45:10;;;;;;;55.00;27.75;;;9.40;99.90;;;;;;5011058;28;20415;-54
2022/03/16 01:47:36;;;;;;;56.00;27.00;;;9.40;99.90;;;;;;5011649;28;20385;-54
2022/03/16 01:50:03;;;;;;;57.20;27.55;;;9.40;99.90;;;;;;5010962;28;20927;-54
2022/03/16 01:52:29;;;;;;;53.35;27.00;;;9.40;99.90;;;;;;5011633;28;20463;-54
2022/03/16 01:54:57;;;;;;;55.00;28.40;;;9.40;99.90;;;;;;5010399;28;20389;-54
2022/03/16 01:57:23;;;;;;;55.63;27.67;;;9.40;99.90;;;;;;5009229;28;20369;-54
2022/03/16 01:59:49;;;;;;;55.25;27.17;;;9.40;99.90;;;;;;5009602;28;20888;-54
2022/03/16 02:02:15;;;;;;;53.80;27.63;;;9.40;99.90;;;;;;5010974;28;20503;-54
2022/03/16 02:04:42;;;;;;;53.45;27.35;;;9.50;99.90;;;;;;5008631;28;20476;-54
2022/03/16 02:07:08;;;;;;;57.45;27.33;;;9.40;99.90;;;;;;5009977;28;20432;-54
2022/03/16 02:09:34;;;;;;;52.22;26.23;;;9.40;99.90;;;;;;5010763;28;20393;-54
2022/03/16 02:12:00;;;;;;;53.58;26.35;;;9.40;99.90;;;;;;5009754;28;20807;-54
2022/03/16 02:14:26;;;;;;;54.03;26.15;;;9.40;99.90;;;;;;5010700;28;20412;-54
2022/03/16 02:16:51;;;;;;;49.75;27.00;;;9.30;99.90;;;;;;5010085;28;20472;-54
2022/03/16 02:19:17;;;;;;;55.70;27.80;;;9.30;99.90;;;;;;5010996;28;20397;-54
2022/03/16 02:21:49;;;;;;;56.50;26.30;;;9.40;99.90;;;;;;5010473;28;20381;-54
2022/03/16 02:24:14;;;;;;;56.65;26.75;;;9.40;99.90;;;;;;5010837;28;20842;-53
2022/03/16 02:26:40;;;;;;;61.83;28.17;;;9.40;99.90;;;;;;5010785;28;20455;-54
2022/03/16 02:29:05;;;;;;;56.97;27.77;;;9.40;99.90;;;;;;4992544;28;20389;-54
2022/03/16 02:31:31;;;;;;;60.30;28.95;;;9.40;99.90;;;;;;5010581;28;20389;-54
2022/03/16 02:33:57;;;;;;;56.03;29.10;;;9.50;99.90;;;;;;5009111;28;20833;-54
2022/03/16 02:36:25;;;;;;;55.90;28.07;;;9.50;99.90;;;;;;5010256;28;20413;-54
2022/03/16 02:38:52;;;;;;;59.70;29.08;;;9.40;99.90;;;;;;5008612;28;20892;-54
2022/03/16 02:41:17;;;;;;;62.53;28.52;;;9.40;99.90;;;;;;5010877;28;20391;-54
2022/03/16 02:43:43;;;;;;;60.70;30.33;;;9.30;99.90;;;;;;4992595;28;20479;-54
2022/03/16 02:46:09;;;;;;;58.90;28.77;;;9.20;99.90;;;;;;5009173;28;20431;-54
2022/03/16 02:48:34;;;;;;;63.28;29.38;;;9.00;99.90;;;;;;5010235;28;20591;-54
2022/03/16 02:51:00;;;;;;;65.67;30.13;;;9.00;99.90;;;;;;5009082;28;20397;-54
2022/03/16 02:53:25;;;;;;;56.20;27.70;;;9.10;99.90;;;;;;5010212;28;20734;-54
2022/03/16 02:55:51;;;;;;;63.03;30.20;;;8.90;99.90;;;;;;5009462;28;20483;-53
2022/03/16 02:58:17;;;;;;;69.90;30.92;;;9.00;99.90;;;;;;5009889;28;20403;-55
2022/03/16 03:00:44;;;;;;;62.60;31.05;;;8.90;99.90;;;;;;5009974;28;20392;-54
2022/03/16 03:03:10;;;;;;;69.22;31.33;;;8.90;99.90;;;;;;5010167;28;20400;-54
2022/03/16 03:05:36;;;;;;;60.22;30.35;;;9.00;99.90;;;;;;5009868;28;20405;-53
2022/03/16 03:08:02;;;;;;;67.75;32.35;;;9.20;99.90;;;;;;5008545;28;20408;-54
2022/03/16 03:10:28;;;;;;;63.73;30.03;;;9.20;99.90;;;;;;5009576;28;20408;-54
2022/03/16 03:12:53;;;;;;;59.90;29.02;;;9.20;99.90;;;;;;4991816;28;20400;-53
2022/03/16 03:15:19;;;;;;;67.20;31.90;;;9.20;99.90;;;;;;5010204;28;20389;-53
2022/03/16 03:17:45;;;;;;;63.83;30.60;;;9.10;99.90;;;;;;5009715;28;20706;-54
2022/03/16 03:20:12;;;;;;;65.78;29.90;;;9.20;99.90;;;;;;5008957;28;20456;-54
2022/03/16 03:22:38;;;;;;;60.50;30.63;;;9.30;99.90;;;;;;4992402;28;20871;-54
2022/03/16 03:25:04;;;;;;;69.47;32.33;;;9.30;99.90;;;;;;5007052;28;20869;-54
2022/03/16 03:27:32;;;;;;;64.25;29.77;;;9.40;99.90;;;;;;5009512;28;20488;-54
2022/03/16 03:29:58;;;;;;;65.88;31.67;;;9.40;99.90;;;;;;5009347;28;20389;-54
2022/03/16 03:32:23;;;;;;;66.85;31.17;;;9.30;99.90;;;;;;5009225;28;20407;-54
2022/03/16 03:34:51;;;;;;;72.80;32.70;;;9.20;99.90;;;;;;5008700;28;20836;-54
2022/03/16 03:37:18;;;;;;;64.70;31.00;;;9.30;99.90;;;;;;5009533;28;20420;-54
2022/03/16 03:39:43;;;;;;;66.97;32.40;;;9.40;99.90;;;;;;5009562;28;20861;-54
2022/03/16 03:42:09;;;;;;;64.80;31.67;;;9.30;99.90;;;;;;5009030;28;20377;-54
2022/03/16 03:44:37;;;;;;;64.95;31.05;;;9.40;99.90;;;;;;5009448;28;20396;-54
2022/03/16 03:47:08;;;;;;;64.45;30.98;;;9.30;99.90;;;;;;5008935;28;20408;-54
2022/03/16 03:49:35;;;;;;;66.05;31.77;;;9.40;99.90;;;;;;5009702;28;20401;-54
2022/03/16 03:52:01;;;;;;;65.40;31.30;;;9.30;99.90;;;;;;5008980;28;20387;-54
2022/03/16 03:54:27;;;;;;;69.88;32.03;;;9.20;99.90;;;;;;5009481;28;20385;-54
2022/03/16 03:56:53;;;;;;;63.47;30.67;;;9.30;99.90;;;;;;5008644;28;20395;-54
2022/03/16 03:59:19;;;;;;;65.17;31.63;;;9.40;99.90;;;;;;5009265;28;20425;-54
2022/03/16 04:01:46;;;;;;;63.83;32.00;;;9.40;99.90;;;;;;5006720;28;20400;-54
2022/03/16 04:04:12;;;;;;;61.40;30.08;;;9.40;99.90;;;;;;5009140;28;20434;-54
2022/03/16 04:06:37;;;;;;;62.25;30.45;;;9.40;99.90;;;;;;4991643;28;20508;-55
2022/03/16 04:09:04;;;;;;;73.50;31.60;;;9.50;99.90;;;;;;5008795;28;20389;-54
2022/03/16 04:11:30;;;;;;;64.07;30.45;;;9.50;99.90;;;;;;5013150;28;20385;-54
2022/03/16 04:13:56;;;;;;;65.82;29.92;;;9.50;99.90;;;;;;5012096;28;20400;-54
2022/03/16 04:16:21;;;;;;;69.10;33.37;;;9.50;99.90;;;;;;5013012;28;20909;-54
2022/03/16 04:18:47;;;;;;;65.30;30.35;;;9.40;99.90;;;;;;5012581;28;20385;-54
2022/03/16 04:21:12;;;;;;;72.30;32.87;;;9.40;99.90;;;;;;5012576;28;20444;-54
2022/03/16 04:23:38;;;;;;;75.60;32.33;;;9.40;99.90;;;;;;5013201;28;20377;-54
2022/03/16 04:26:04;;;;;;;71.83;33.00;;;9.40;99.90;;;;;;5011921;28;20417;-54
2022/03/16 04:28:29;;;;;;;68.13;31.67;;;9.30;99.90;;;;;;5012319;28;20396;-54
2022/03/16 04:30:55;;;;;;;68.43;32.27;;;9.40;99.90;;;;;;5011676;28;20912;-55
2022/03/16 04:33:20;;;;;;;71.77;32.93;;;9.40;99.90;;;;;;5012538;28;20385;-54
2022/03/16 04:35:46;;;;;;;78.60;34.80;;;9.40;99.90;;;;;;5012082;28;20861;-54
2022/03/16 04:38:12;;;;;;;72.33;32.93;;;9.40;99.90;;;;;;5012845;28;20397;-54
2022/03/16 04:40:37;;;;;;;72.97;33.67;;;9.30;99.90;;;;;;5012459;28;20472;-55
2022/03/16 04:43:03;;;;;;;74.73;34.83;;;9.20;99.90;;;;;;5010907;28;20476;-54
2022/03/16 04:45:29;;;;;;;71.43;33.00;;;9.20;99.90;;;;;;5012413;28;20415;-54
2022/03/16 04:47:54;;;;;;;77.35;34.17;;;9.20;99.90;;;;;;5011749;28;20869;-54
2022/03/16 04:50:20;;;;;;;77.83;35.20;;;9.20;99.90;;;;;;5012733;28;20392;-54
2022/03/16 04:52:48;;;;;;;78.00;35.40;;;9.30;99.90;;;;;;5012102;28;20404;-54
2022/03/16 04:55:15;;;;;;;77.68;34.17;;;9.30;99.90;;;;;;5011947;28;20395;-54
2022/03/16 04:57:41;;;;;;;75.78;34.15;;;9.30;99.90;;;;;;5012414;28;20475;-54
2022/03/16 05:00:09;;;;;;;78.03;35.40;;;9.40;99.90;;;;;;5009219;28;20405;-54
2022/03/16 05:02:36;;;;;;;80.53;35.50;;;9.30;99.90;;;;;;5012145;28;20451;-54
2022/03/16 05:05:02;;;;;;;80.40;35.30;;;9.20;99.90;;;;;;5011158;28;20481;-54
2022/03/16 05:07:28;;;;;;;76.25;34.05;;;9.10;99.90;;;;;;4994591;28;20428;-54
2022/03/16 05:09:54;;;;;;;80.05;34.00;;;9.10;99.90;;;;;;5010934;28;20396;-54
2022/03/16 05:12:20;;;;;;;77.45;34.95;;;9.30;99.90;;;;;;5012080;28;20384;-54
2022/03/16 05:14:46;;;;;;;80.07;34.80;;;9.10;99.90;;;;;;5012305;28;20507;-54
2022/03/16 05:17:11;;;;;;;73.88;33.40;;;9.10;99.90;;;;;;5011331;28;20384;-54
2022/03/16 05:19:37;;;;;;;76.93;34.83;;;9.10;99.90;;;;;;5011691;28;20409;-54
2022/03/16 05:22:02;;;;;;;72.32;33.15;;;9.00;99.90;;;;;;5010739;28;20378;-54
2022/03/16 05:24:28;;;;;;;76.70;34.10;;;9.10;99.90;;;;;;5009040;28;20458;-54
2022/03/16 05:26:54;;;;;;;69.05;32.55;;;9.20;99.90;;;;;;5011036;28;20495;-54
2022/03/16 05:29:19;;;;;;;73.10;34.23;;;9.10;99.90;;;;;;5011837;28;20393;-54
2022/03/16 05:31:45;;;;;;;79.38;33.97;;;9.00;99.90;;;;;;5010980;28;20439;-54
2022/03/16 05:34:11;;;;;;;71.10;34.40;;;8.90;99.90;;;;;;5011117;28;20381;-54
2022/03/16 05:36:36;;;;;;;80.30;35.80;;;9.00;99.90;;;;;;5011783;28;20381;-53
2022/03/16 05:39:04;;;;;;;75.47;33.07;;;9.00;99.90;;;;;;5011121;28;20475;-54
2022/03/16 05:41:30;;;;;;;71.18;33.00;;;8.90;99.90;;;;;;4993724;28;20420;-53
2022/03/16 05:43:55;;;;;;;77.63;34.40;;;8.60;99.90;;;;;;5010879;28;20381;-53
2022/03/16 05:46:21;;;;;;;81.07;33.20;;;8.50;99.90;;;;;;5011362;28;20407;-53
2022/03/16 05:48:47;;;;;;;73.18;32.67;;;8.60;99.90;;;;;;5006242;28;20501;-54
2022/03/16 05:51:13;;;;;;;67.88;32.17;;;9.90;99.90;;;;;;5010577;28;20403;-52
2022/03/16 05:53:39;;;;;;;67.88;32.10;;;8.50;99.90;;;;;;5011107;28;20385;-53
2022/03/16 05:56:05;;;;;;;65.90;30.20;;;8.50;99.90;;;;;;5010445;28;20916;-52
2022/03/16 05:58:31;;;;;;;63.10;29.77;;;8.50;99.90;;;;;;5010878;28;20385;-52
2022/03/16 06:00:57;;;;;;;60.35;27.95;;;8.50;99.90;;;;;;5007556;28;20409;-54
2022/03/16 06:03:22;;;;;;;58.83;28.60;;;8.60;99.90;;;;;;5008078;28;20569;-52
2022/03/16 06:05:48;;;;;;;60.20;28.83;;;8.50;99.90;;;;;;5010942;28;20766;-53
2022/03/16 06:08:14;;;;;;;59.40;27.83;;;8.50;99.90;;;;;;5010235;28;20381;-53
2022/03/16 06:10:40;;;;;;;58.60;27.15;;;8.30;99.90;;;;;;5010945;28;20723;-53
2022/03/16 06:13:06;;;;;;;59.70;27.90;;;8.30;99.90;;;;;;5010564;28;20381;-52
2022/03/16 06:15:41;;;;;;;54.70;26.08;;;8.30;99.90;;;;;;5011336;28;20392;-53
2022/03/16 06:18:07;;;;;;;57.22;27.73;;;8.20;99.90;;;;;;5010539;28;20473;-52
2022/03/16 06:20:34;;;;;;;51.42;26.05;;;8.30;99.90;;;;;;5010855;28;20415;-53
2022/03/16 06:23:00;;;;;;;54.33;26.30;;;8.30;99.90;;;;;;5010712;28;20387;-54
2022/03/16 06:25:26;;;;;;;56.50;26.53;;;8.30;99.90;;;;;;5011570;28;20417;-53
2022/03/16 06:27:53;;;;;;;52.47;25.90;;;8.30;99.90;;;;;;5010318;28;20749;-52
2022/03/16 06:30:20;;;;;;;51.95;25.45;;;8.20;99.90;;;;;;5010523;28;20478;-53
2022/03/16 06:32:47;;;;;;;51.33;24.40;;;8.00;99.90;;;;;;5010446;28;20389;-52
2022/03/16 06:35:14;;;;;;;51.72;24.45;;;8.00;99.90;;;;;;5010150;28;20480;-52
2022/03/16 06:37:41;;;;;;;49.67;26.20;;;8.00;99.90;;;;;;5010534;28;20447;-53
2022/03/16 06:40:07;;;;;;;56.83;26.60;;;8.00;99.90;;;;;;5010705;28;20392;-52
2022/03/16 06:42:33;;;;;;;52.28;25.52;;;8.10;99.90;;;;;;5011687;28;20734;-52
2022/03/16 06:44:58;;;;;;;51.73;26.00;;;8.10;99.90;;;;;;5009818;28;20420;-53
2022/03/16 06:47:24;;;;;;;47.45;24.33;;;8.10;99.90;;;;;;5010960;28;20381;-52
2022/03/16 06:49:50;;;;;;;49.30;25.03;;;8.20;99.90;;;;;;5010529;28;20422;-52
2022/03/16 06:52:15;;;;;;;54.15;25.80;;;8.10;99.90;;;;;;5010708;28;20888;-53
2022/03/16 06:54:41;;;;;;;48.23;24.70;;;8.10;99.90;;;;;;5010619;28;20388;-52
2022/03/16 06:57:06;;;;;;;49.88;24.15;;;8.20;99.90;;;;;;5009895;28;20488;-53
2022/03/16 06:59:32;;;;;;;54.13;25.60;;;8.10;99.90;;;;;;5010748;28;20380;-53
2022/03/16 07:01:58;;;;;;;52.30;24.75;;;8.10;99.90;;;;;;5009551;28;20391;-52
2022/03/16 07:04:23;;;;;;;49.90;24.67;;;8.00;99.90;;;;;;5004404;28;20459;-52
2022/03/16 07:06:50;;;;;;;49.50;24.70;;;8.00;99.90;;;;;;5009049;28;20870;-52
2022/03/16 07:09:15;;;;;;;48.15;24.10;;;8.00;99.90;;;;;;5009916;28;20487;-52
2022/03/16 07:11:41;;;;;;;56.13;27.30;;;8.20;99.90;;;;;;5010609;28;20840;-52
2022/03/16 07:16:51;;;;;;;53.22;27.60;;;8.00;99.90;;;;;;5009482;28;20766;-52
2022/03/16 07:19:16;;;;;;;53.15;25.60;;;8.20;99.90;;;;;;5010171;28;20396;-52
2022/03/16 07:21:42;;;;;;;53.43;25.90;;;8.10;99.90;;;;;;5010331;28;20399;-53
2022/03/16 07:24:08;;;;;;;53.15;26.45;;;8.30;99.90;;;;;;5009684;28;20455;-52
2022/03/16 07:26:34;;;;;;;56.92;27.75;;;8.30;99.90;;;;;;5010296;28;20782;-53
2022/03/16 07:28:59;;;;;;;48.40;25.13;;;8.30;99.90;;;;;;4991850;28;20396;-53
2022/03/16 07:31:25;;;;;;;51.00;25.10;;;8.40;99.90;;;;;;5009835;28;20857;-53
2022/03/16 07:33:51;;;;;;;47.20;24.42;;;8.50;99.90;;;;;;5007025;28;20489;-57
2022/03/16 07:36:16;;;;;;;47.77;25.40;;;10.00;99.90;;;;;;5007589;28;20404;-53
2022/03/16 07:38:42;;;;;;;50.25;24.90;;;8.40;99.90;;;;;;5012002;28;20406;-53
2022/03/16 07:41:08;;;;;;;53.57;25.77;;;8.40;99.90;;;;;;5020837;28;20383;-53
2022/03/16 07:43:33;;;;;;;48.72;24.05;;;8.50;99.90;;;;;;5019175;28;20399;-52
2022/03/16 07:45:59;;;;;;;47.03;23.67;;;8.40;99.90;;;;;;5020429;28;20440;-53
2022/03/16 07:48:25;;;;;;;45.80;23.83;;;8.50;99.90;;;;;;5014052;28;20864;-52
2022/03/16 07:50:51;;;;;;;50.27;24.83;;;8.40;99.90;;;;;;5013163;28;20893;-53
2022/03/16 07:53:17;;;;;;;52.50;23.70;;;8.40;99.90;;;;;;5011976;28;20408;-52
2022/03/16 07:55:45;;;;;;;47.88;24.35;;;8.40;99.90;;;;;;5015759;28;20876;-53
2022/03/16 07:58:11;;;;;;;48.80;23.50;;;8.40;99.90;;;;;;5011603;28;21124;-53
2022/03/16 08:00:37;;;;;;;49.83;25.20;;;8.40;99.90;;;;;;5017540;28;20399;-54
2022/03/16 08:03:03;;;;;;;49.47;25.50;;;8.60;99.90;;;;;;5021386;28;20390;-53
2022/03/16 08:05:29;;;;;;;49.15;24.23;;;8.70;99.90;;;;;;5015348;28;20466;-52
2022/03/16 08:07:55;;;;;;;49.30;24.45;;;8.60;99.90;;;;;;5011872;28;20416;-52
2022/03/16 08:10:21;;;;;;;46.95;23.90;;;8.60;99.90;;;;;;5013406;28;20372;-53
2022/03/16 08:12:47;;;;;;;48.78;23.45;;;8.50;99.90;;;;;;5013273;28;20892;-52
2022/03/16 08:15:13;;;;;;;48.35;24.20;;;8.50;99.90;;;;;;5008765;28;20424;-52
2022/03/16 08:17:39;;;;;;;48.75;23.20;;;8.40;99.90;;;;;;5013468;28;20395;-53
2022/03/16 08:20:05;;;;;;;45.30;23.38;;;10.50;99.90;;;;;;5012388;28;20404;-53
2022/03/16 08:22:33;;;;;;;46.05;23.77;;;8.40;99.90;;;;;;5012922;28;20455;-53
2022/03/16 08:25:00;;;;;;;48.13;23.88;;;8.40;99.90;;;;;;5011544;28;20484;-53
2022/03/16 08:27:27;;;;;;;46.42;23.30;;;8.50;99.90;;;;;;5012756;28;20377;-53
2022/03/16 08:29:53;;;;;;;45.35;23.13;;;8.70;99.90;;;;;;5012999;28;20480;-53
2022/03/16 08:32:20;;;;;;;47.35;23.10;;;8.50;99.90;;;;;;5012854;28;20384;-53
2022/03/16 08:34:46;;;;;;;51.53;25.10;;;8.50;99.90;;;;;;5012978;28;20388;-53
2022/03/16 08:37:12;;;;;;;46.33;22.83;;;8.80;99.90;;;;;;5012377;28;20634;-53
2022/03/16 08:39:39;;;;;;;42.17;22.13;;;8.90;99.90;;;;;;5013293;28;20870;-53
2022/03/16 08:42:11;;;;;;;43.95;21.75;;;8.90;99.90;;;;;;5012590;28;20416;-54
2022/03/16 08:44:37;;;;;;;44.38;22.92;;;8.90;99.90;;;;;;4995576;28;20761;-53
2022/03/16 08:47:03;;;;;;;42.60;23.08;;;8.80;99.90;;;;;;5012331;28;20960;-53
2022/03/16 08:49:29;;;;;;;44.03;21.70;;;8.70;99.90;;;;;;5012522;28;20408;-53
2022/03/16 08:51:57;;;;;;;42.05;22.00;;;8.60;99.90;;;;;;5011911;28;20385;-53
2022/03/16 08:54:23;;;;;;;42.65;21.70;;;8.70;99.90;;;;;;5012659;28;20439;-53
2022/03/16 08:56:50;;;;;;;44.40;21.70;;;8.80;99.90;;;;;;5011589;28;20472;-53
2022/03/16 08:59:15;;;;;;;42.55;22.42;;;8.70;99.90;;;;;;5011863;28;20391;-51
2022/03/16 09:01:41;;;;;;;42.37;21.93;;;8.80;99.90;;;;;;5012481;28;20459;-51
2022/03/16 09:04:07;;;;;;;39.05;20.40;;;8.80;99.90;;;;;;5011702;28;20385;-53
2022/03/16 09:06:32;;;;;;;37.47;19.57;;;9.00;99.90;;;;;;5012453;28;20416;-53
2022/03/16 09:08:58;;;;;;;40.50;19.67;;;9.00;99.90;;;;;;5011901;28;20456;-53
2022/03/16 09:11:24;;;;;;;38.77;19.37;;;9.00;99.90;;;;;;5012978;28;20401;-53
2022/03/16 09:13:50;;;;;;;34.88;18.85;;;9.00;99.90;;;;;;5012674;28;20381;-53
2022/03/16 09:16:16;;;;;;;40.78;20.58;;;9.10;99.90;;;;;;5011603;28;20388;-54
2022/03/16 09:18:42;;;;;;;38.78;20.58;;;9.20;99.90;;;;;;5012325;28;20407;-53
2022/03/16 09:21:08;;;;;;;37.17;19.00;;;9.30;99.90;;;;;;5011335;28;20407;-53
2022/03/16 09:23:33;;;;;;;38.63;20.17;;;9.20;99.90;;;;;;5012445;28;20389;-53
2022/03/16 09:25:59;;;;;;;36.58;18.92;;;9.20;99.90;;;;;;5011926;28;20757;-53
2022/03/16 09:28:26;;;;;;;36.15;20.05;;;9.30;99.90;;;;;;5012281;28;20571;-54
2022/03/16 09:30:51;;;;;;;39.08;19.45;;;9.40;99.90;;;;;;5012251;28;20480;-54
2022/03/16 09:33:17;;;;;;;40.77;20.23;;;9.50;99.90;;;;;;5011745;28;20481;-53
2022/03/16 09:35:44;;;;;;;40.63;21.25;;;9.40;99.90;;;;;;5011844;28;20789;-53
2022/03/16 09:38:12;;;;;;;42.25;22.52;;;9.60;99.90;;;;;;4993899;28;20384;-53
2022/03/16 09:40:38;;;;;;;47.00;22.02;;;9.70;99.90;;;;;;5012070;28;20385;-53
2022/03/16 09:43:08;;;;;;;39.60;21.17;;;9.90;99.90;;;;;;5011495;28;20464;-54
2022/03/16 09:45:46;;;;;;;40.15;21.00;;;10.00;99.90;;;;;;5011757;28;20439;-54
2022/03/16 09:48:13;;;;;;;42.35;22.13;;;9.90;99.90;;;;;;5011137;28;20390;-53
2022/03/16 09:50:41;;;;;;;40.22;21.38;;;10.00;99.90;;;;;;5011940;28;20474;-53
2022/03/16 09:53:09;;;;;;;44.13;22.93;;;10.10;99.90;;;;;;5010584;28;20385;-54
2022/03/16 09:55:35;;;;;;;38.63;20.02;;;10.10;99.90;;;;;;5011529;28;20400;-54
2022/03/16 09:58:01;;;;;;;38.20;20.00;;;10.10;99.90;;;;;;5009914;28;20981;-53
2022/03/16 10:00:26;;;;;;;36.45;19.30;;;10.00;99.90;;;;;;5011712;28;20442;-54
2022/03/16 10:02:54;;;;;;;38.80;20.27;;;9.80;99.90;;;;;;5011231;28;20425;-53
2022/03/16 10:05:21;;;;;;;34.95;19.15;;;9.90;99.90;;;;;;5010622;28;20865;-53
2022/03/16 10:07:52;;;;;;;36.08;18.60;;;9.80;99.90;;;;;;5011241;28;20395;-53
2022/03/16 10:13:21;;;;;;;33.08;18.35;;;9.90;99.90;;;;;;5010549;28;20388;-53
2022/03/16 10:15:51;;;;;;;34.28;18.13;;;10.00;99.90;;;;;;5011425;28;20377;-54
2022/03/16 10:18:20;;;;;;;37.03;19.08;;;9.90;99.90;;;;;;5010779;28;20385;-54
2022/03/16 10:20:46;;;;;;;35.65;19.20;;;9.90;99.90;;;;;;5011162;28;20405;-53
2022/03/16 10:23:14;;;;;;;33.67;18.23;;;9.90;99.90;;;;;;5010964;28;20389;-53
2022/03/16 10:25:54;;;;;;;36.17;19.23;;;10.20;99.90;;;;;;4993418;28;20448;-54
2022/03/16 10:28:21;;;;;;;33.90;17.98;;;10.20;99.90;;;;;;5011576;28;20827;-54
2022/03/16 10:31:05;;;;;;;33.20;17.13;;;10.30;99.90;;;;;;5011085;28;20392;-54
2022/03/16 10:33:49;;;;;;;35.30;18.05;;;10.40;99.90;;;;;;5010477;28;20870;-54
2022/03/16 10:36:17;;;;;;;34.17;18.40;;;10.50;99.90;;;;;;5010545;28;20400;-53
2022/03/16 10:38:49;;;;;;;32.67;17.15;;;10.70;99.90;;;;;;5011350;28;20410;-54
2022/03/16 10:47:12;;;;;;;29.95;17.40;;;11.20;99.90;;;;;;5009636;28;20420;-54
2022/03/16 10:49:38;;;;;;;29.45;15.88;;;11.40;99.90;;;;;;5010462;28;20405;-54
2022/03/16 10:52:15;;;;;;;30.52;16.25;;;11.10;99.90;;;;;;5010195;28;20446;-53
2022/03/16 10:54:43;;;;;;;29.85;16.52;;;11.20;99.90;;;;;;5010285;28;20388;-53
2022/03/16 10:57:13;;;;;;;31.35;17.90;;;11.70;99.90;;;;;;5009515;28;20396;-51
2022/03/16 10:59:42;;;;;;;29.80;17.00;;;12.10;99.90;;;;;;5010432;28;20488;-51
2022/03/16 11:02:15;;;;;;;31.35;17.02;;;12.40;99.90;;;;;;5009986;28;20483;-51
2022/03/16 11:04:44;;;;;;;28.77;16.10;;;13.00;99.90;;;;;;5009849;28;20859;-51
2022/03/16 11:07:10;;;;;;;31.48;16.45;;;12.90;99.90;;;;;;5009350;28;20408;-51
2022/03/16 11:09:37;;;;;;;30.70;17.10;;;13.00;99.90;;;;;;5009823;28;20442;-51
2022/03/16 11:14:50;;;;;;;28.17;16.30;;;13.10;99.90;;;;;;5009826;28;20391;-51
2022/03/16 11:17:17;;;;;;;27.95;16.23;;;12.90;99.90;;;;;;5008877;28;20480;-51
2022/03/16 11:19:46;;;;;;;27.45;15.73;;;13.10;99.90;;;;;;5009606;28;20405;-52
2022/03/16 11:22:20;;;;;;;28.33;15.60;;;13.00;99.90;;;;;;5009531;28;20389;-52
2022/03/16 11:24:51;;;;;;;28.75;16.17;;;13.10;99.90;;;;;;5010379;28;20388;-52
2022/03/16 11:27:20;;;;;;;28.35;16.13;;;13.30;99.90;;;;;;5009304;28;20444;-52
2022/03/16 11:30:09;;;;;;;25.73;15.40;;;13.60;99.90;;;;;;5010062;28;20427;-52
2022/03/16 11:32:38;;;;;;;28.80;16.65;;;13.50;99.90;;;;;;5009491;28;20419;-52
2022/03/16 11:35:14;;;;;;;28.10;15.60;;;13.60;99.90;;;;;;5008747;28;20381;-52
2022/03/16 11:37:49;;;;;;;26.17;15.30;;;13.70;99.90;;;;;;5010157;28;20427;-52
2022/03/16 11:40:22;;;;;;;24.43;15.70;;;14.20;99.90;;;;;;5009816;28;20380;-52
2022/03/16 11:43:11;;;;;;;24.77;14.80;;;14.30;99.90;;;;;;5009747;28;20804;-52
2022/03/16 11:45:38;;;;;;;27.40;16.15;;;13.90;99.90;;;;;;5009892;28;20454;-52
2022/03/16 11:48:32;;;;;;;27.73;15.90;;;14.20;99.90;;;;;;5009045;28;20872;-52
2022/03/16 11:51:09;;;;;;;31.90;16.33;;;14.40;99.90;;;;;;5009559;28;20393;-52
2022/03/16 11:56:40;;;;;;;31.33;17.27;;;14.50;99.90;;;;;;5009139;28;20400;-52
2022/03/16 11:59:16;;;;;;;27.42;15.80;;;13.90;99.90;;;;;;5008745;28;20396;-52
2022/03/16 12:01:50;;;;;;;28.73;16.42;;;13.40;99.90;;;;;;5009523;28;20447;-52
2022/03/16 12:04:29;;;;;;;26.92;15.88;;;13.20;99.90;;;;;;5009263;28;20435;-52
2022/03/16 12:07:02;;;;;;;29.00;15.95;;;13.20;99.90;;;;;;5009942;28;20413;-52
2022/03/16 12:09:59;;;;;;;27.17;16.00;;;13.20;99.90;;;;;;5009521;28;20451;-52
2022/03/16 12:15:33;;;;;;;26.53;15.10;;;13.70;99.90;;;;;;4989561;28;20513;-52
2022/03/16 12:17:58;;;;;;;27.37;15.27;;;13.70;99.90;;;;;;4988688;28;20460;-51
2022/03/16 12:20:32;;;;;;;27.63;15.52;;;13.70;99.90;;;;;;4989556;28;20843;-51
2022/03/16 12:23:12;;;;;;;27.15;15.30;;;14.00;99.90;;;;;;4989771;28;20868;-52
2022/03/16 12:25:42;;;;;;;28.05;15.30;;;14.10;99.90;;;;;;4990225;28;20509;-52
2022/03/16 12:31:01;;;;;;;27.85;16.35;;;13.80;99.90;;;;;;4991445;28;20433;-52
2022/03/16 12:33:31;;;;;;;28.20;15.40;;;13.30;99.90;;;;;;4993475;28;20378;-52
2022/03/16 12:36:01;;;;;;;26.40;15.20;;;14.10;99.90;;;;;;4993323;28;20454;-52
2022/03/16 12:38:31;;;;;;;25.73;16.33;;;14.10;99.90;;;;;;4993294;28;20430;-52
2022/03/16 12:43:46;;;;;;;26.50;15.70;;;13.80;99.90;;;;;;4993514;28;20922;-52
2022/03/16 12:46:25;;;;;;;26.92;14.77;;;13.80;99.90;;;;;;4992903;28;20497;-52
2022/03/16 12:49:02;;;;;;;27.80;15.50;;;13.80;99.90;;;;;;4993285;28;20385;-52
2022/03/16 12:51:43;;;;;;;27.00;15.45;;;13.80;99.90;;;;;;4993128;28;20485;-52
2022/03/16 12:54:10;;;;;;;27.60;15.57;;;13.80;99.90;;;;;;4992123;28;20545;-52
2022/03/16 12:56:41;;;;;;;25.30;15.15;;;13.80;99.90;;;;;;4992754;28;20402;-52
2022/03/16 12:59:08;;;;;;;25.13;14.70;;;13.70;99.90;;;;;;4991057;28;20409;-52
2022/03/16 13:01:34;;;;;;;26.80;15.35;;;13.70;99.90;;;;;;4993044;28;20414;-53